Terminal Aerodrome Forecast
Issued by NWS Cleveland, OH

Home | Current Version | Previous Version | Graphics & Text | Print | Product List | Glossary On
Versions: 1 2 3 4 5 6 7 8 9 10 11 12 13
200
FTUS41 KCLE 251732
TAFYNG
TAF
KYNG 251732Z 2518/2618 10005KT P6SM SKC
     FM261300 16010KT P6SM SCT040
     FM261700 22012G20KT 5SM -SHRA SCT015 OVC030=

USA.gov is the U.S. government's official web portal to all federal, state and local government web resources and services.